createdAt,value
2023-04-15T00:00:34.858Z,77.12
2023-04-15T00:04:59.842Z,77.35
2023-04-15T00:09:26.878Z,77.42
2023-04-15T00:13:50.768Z,77.49
2023-04-15T00:18:15.827Z,77.46
2023-04-15T00:22:40.806Z,77.26
2023-04-15T00:27:04.989Z,77.20
2023-04-15T00:31:28.899Z,77.49
2023-04-15T00:35:55.797Z,77.37
2023-04-15T00:40:19.728Z,77.91
2023-04-15T00:44:49.646Z,77.87
2023-04-15T00:49:14.785Z,77.69
2023-04-15T00:53:38.726Z,77.70
2023-04-15T00:58:03.722Z,77.64
2023-04-15T01:02:27.709Z,77.51
2023-04-15T01:06:51.996Z,77.80
2023-04-15T01:11:21.642Z,77.74
2023-04-15T01:15:45.573Z,77.53
2023-04-15T01:20:15.441Z,77.79
2023-04-15T01:24:39.432Z,77.78
2023-04-15T01:29:12.700Z,77.65
2023-04-15T01:33:38.982Z,77.82
2023-04-15T01:38:05.968Z,78.06
2023-04-15T01:42:35.982Z,77.87
2023-04-15T01:47:06.281Z,77.36
2023-04-15T01:51:35.838Z,77.68
2023-04-15T01:56:05.779Z,77.89
2023-04-15T02:00:33.283Z,77.69
2023-04-15T02:04:57.231Z,77.72
2023-04-15T02:09:21.149Z,77.54
2023-04-15T02:13:45.090Z,77.50
2023-04-15T02:18:00.919Z,77.59
2023-04-15T02:22:24.952Z,77.73
2023-04-15T02:26:48.891Z,77.86
2023-04-15T02:31:13.891Z,77.92
2023-04-15T02:35:41.763Z,78.04
2023-04-15T02:40:05.815Z,78.09
2023-04-15T02:44:28.420Z,78.41
2023-04-15T02:48:50.984Z,78.51
2023-04-15T02:53:17.922Z,78.26
2023-04-15T02:57:42.917Z,78.31
2023-04-15T03:02:07.933Z,78.31
2023-04-15T03:06:33.023Z,78.62
2023-04-15T03:10:59.024Z,78.67
2023-04-15T03:15:22.790Z,78.71
2023-04-15T03:19:48.808Z,78.38
2023-04-15T03:24:25.327Z,78.47
2023-04-15T03:28:50.223Z,78.63
2023-04-15T03:33:16.117Z,78.82
2023-04-15T03:37:50.659Z,78.63
2023-04-15T03:42:25.421Z,78.74
2023-04-15T03:47:30.926Z,78.59
2023-04-15T03:52:07.101Z,78.73
2023-04-15T03:56:42.918Z,78.97
2023-04-15T04:01:43.243Z,79.31
2023-04-15T04:06:09.180Z,79.05
2023-04-15T04:10:51.164Z,79.05
2023-04-15T04:15:33.316Z,79.15
2023-04-15T04:20:05.440Z,79.27
2023-04-15T04:24:31.358Z,79.81
2023-04-15T04:28:55.303Z,79.60
2023-04-15T04:33:23.296Z,79.36
2023-04-15T04:37:47.274Z,79.22
2023-04-15T04:42:15.587Z,79.40
2023-04-15T04:46:39.568Z,79.04
2023-04-15T04:51:04.502Z,79.35
2023-04-15T04:55:36.831Z,79.31
2023-04-15T05:00:11.181Z,79.85
2023-04-15T05:04:51.418Z,80.02
2023-04-15T05:09:16.298Z,79.61
2023-04-15T05:13:33.948Z,79.70
2023-04-15T05:17:58.857Z,79.79
2023-04-15T05:22:23.870Z,79.46
2023-04-15T05:26:47.722Z,79.46
2023-04-15T05:31:11.694Z,79.64
2023-04-15T05:35:35.808Z,79.52
2023-04-15T05:40:00.760Z,79.66
2023-04-15T05:44:24.687Z,79.66
2023-04-15T05:48:48.945Z,79.43
2023-04-15T05:53:13.083Z,79.24
2023-04-15T05:57:37.818Z,79.34
2023-04-15T06:01:56.304Z,79.28
2023-04-15T06:06:26.213Z,79.54
2023-04-15T06:10:50.180Z,79.36
2023-04-15T06:15:14.142Z,79.23
2023-04-15T06:19:44.069Z,79.13
2023-04-15T06:24:09.908Z,79.05
2023-04-15T06:28:33.727Z,79.16
2023-04-15T06:32:58.766Z,79.15
2023-04-15T06:37:22.804Z,78.71
2023-04-15T06:41:47.355Z,78.46
2023-04-15T06:46:12.227Z,78.62
2023-04-15T06:50:37.210Z,78.41
2023-04-15T06:55:02.286Z,77.44
2023-04-15T06:59:46.244Z,77.06
2023-04-15T07:03:52.288Z,76.45
2023-04-15T07:08:17.265Z,75.65
2023-04-15T07:12:41.709Z,76.20
2023-04-15T07:17:05.953Z,75.89
2023-04-15T07:21:32.229Z,76.49
2023-04-15T07:25:57.056Z,76.34
2023-04-15T07:30:20.918Z,75.63
2023-04-15T07:34:45.800Z,75.95
2023-04-15T07:39:02.167Z,75.59
2023-04-15T07:43:27.352Z,75.42
2023-04-15T07:47:51.442Z,75.83
2023-04-15T07:52:16.425Z,75.78
2023-04-15T07:56:41.500Z,75.27
2023-04-15T08:01:05.646Z,74.77
2023-04-15T08:05:29.694Z,74.41
2023-04-15T08:09:54.592Z,74.48
2023-04-15T08:14:20.099Z,74.37
2023-04-15T08:18:37.499Z,73.99
2023-04-15T08:23:01.409Z,73.79
2023-04-15T08:27:25.657Z,73.43
2023-04-15T08:31:49.683Z,73.78
2023-04-15T08:36:13.582Z,73.38
2023-04-15T08:40:38.711Z,73.29
2023-04-15T08:45:02.577Z,73.28
2023-04-15T08:49:27.582Z,73.58
2023-04-15T08:53:53.596Z,73.73
2023-04-15T08:58:19.789Z,73.69
2023-04-15T09:02:44.026Z,73.99
2023-04-15T09:07:09.616Z,74.49
2023-04-15T09:11:53.345Z,74.85
2023-04-15T09:16:17.436Z,75.23
2023-04-15T09:20:49.664Z,75.79
2023-04-15T09:25:16.189Z,76.19
2023-04-15T09:30:15.476Z,76.32
2023-04-15T09:34:59.413Z,76.41
2023-04-15T09:39:33.353Z,76.26
2023-04-15T09:43:57.312Z,76.39
2023-04-15T09:48:41.147Z,76.58
2023-04-15T09:53:11.408Z,76.42
2023-04-15T09:57:35.456Z,75.67
2023-04-15T10:02:01.581Z,75.04
2023-04-15T10:06:27.604Z,74.50
2023-04-15T10:10:51.529Z,74.41
2023-04-15T10:15:16.944Z,74.73
2023-04-15T10:19:57.286Z,74.94
2023-04-15T10:24:21.188Z,74.94
2023-04-15T10:29:05.264Z,75.66
2023-04-15T10:33:29.248Z,76.21
2023-04-15T10:37:53.261Z,76.50
2023-04-15T10:42:17.651Z,76.64
2023-04-15T10:46:51.322Z,76.91
2023-04-15T10:51:19.569Z,76.69
2023-04-15T10:55:55.571Z,76.64
2023-04-15T11:00:34.031Z,76.56
2023-04-15T11:04:58.106Z,77.07
2023-04-15T11:09:40.078Z,76.61
2023-04-15T11:13:56.480Z,75.92
2023-04-15T11:18:23.325Z,75.97
2023-04-15T11:22:47.623Z,75.15
2023-04-15T11:27:11.519Z,74.77
2023-04-15T11:31:35.434Z,74.54
2023-04-15T11:35:59.437Z,74.37
2023-04-15T11:40:23.426Z,74.29
2023-04-15T11:44:47.335Z,74.11
2023-04-15T11:49:11.308Z,73.51
2023-04-15T11:53:37.777Z,73.48
2023-04-15T11:58:01.823Z,73.43
2023-04-15T12:02:31.740Z,73.42
2023-04-15T12:07:07.730Z,73.09
2023-04-15T12:11:31.621Z,72.93
2023-04-15T12:16:04.111Z,73.27
2023-04-15T12:20:28.417Z,73.52
2023-04-15T12:24:52.360Z,73.11
2023-04-15T12:29:16.219Z,73.04
2023-04-15T12:33:40.210Z,72.76
2023-04-15T12:37:57.102Z,72.62
2023-04-15T12:42:20.980Z,72.83
2023-04-15T12:46:45.084Z,72.77
2023-04-15T12:51:10.142Z,72.67
2023-04-15T12:55:34.485Z,73.01
2023-04-15T12:59:58.314Z,73.24
2023-04-15T13:04:22.472Z,73.42
2023-04-15T13:08:57.212Z,73.32
2023-04-15T13:13:21.642Z,73.91
2023-04-15T13:17:48.675Z,74.13
2023-04-15T13:22:14.647Z,74.60
2023-04-15T13:26:59.724Z,74.96
2023-04-15T13:31:23.721Z,75.06
2023-04-15T13:35:47.743Z,75.01
2023-04-15T13:40:10.254Z,74.89
2023-04-15T13:44:35.226Z,75.02
2023-04-15T13:48:59.199Z,75.13
2023-04-15T13:53:33.881Z,75.35
2023-04-15T13:58:22.718Z,75.48
2023-04-15T14:02:46.707Z,75.25
2023-04-15T14:07:11.913Z,74.92
2023-04-15T14:11:37.028Z,74.76
2023-04-15T14:16:01.120Z,74.83
2023-04-15T14:20:25.019Z,74.76
2023-04-15T14:24:49.039Z,74.81
2023-04-15T14:29:12.937Z,74.55
2023-04-15T14:33:38.908Z,74.25
2023-04-15T14:38:03.937Z,74.52
2023-04-15T14:42:28.698Z,74.69
2023-04-15T14:46:52.640Z,75.07
2023-04-15T14:51:16.485Z,75.16
2023-04-15T14:55:41.421Z,75.24
2023-04-15T15:00:05.332Z,75.17
2023-04-15T15:04:49.624Z,74.88
2023-04-15T15:09:13.722Z,75.02
2023-04-15T15:13:37.575Z,75.09
2023-04-15T15:18:03.682Z,75.16
2023-04-15T15:22:27.677Z,75.40
2023-04-15T15:26:51.864Z,75.57
2023-04-15T15:31:15.922Z,75.10
2023-04-15T15:35:48.752Z,75.29
2023-04-15T15:40:14.595Z,74.78
2023-04-15T15:44:38.559Z,74.98
2023-04-15T15:49:12.011Z,74.93
2023-04-15T15:53:31.479Z,75.15
2023-04-15T15:57:55.619Z,75.11
2023-04-15T16:03:05.154Z,75.12
2023-04-15T16:07:24.339Z,75.14
2023-04-15T16:11:51.327Z,75.27
2023-04-15T16:16:15.947Z,75.74
2023-04-15T16:20:59.844Z,75.80
2023-04-15T16:25:43.764Z,75.18
2023-04-15T16:30:07.944Z,75.21
2023-04-15T16:34:33.239Z,75.99
2023-04-15T16:38:57.307Z,76.26
2023-04-15T16:43:21.235Z,76.49
2023-04-15T16:47:45.172Z,76.09
2023-04-15T16:52:09.221Z,75.81
2023-04-15T16:56:34.120Z,75.93
2023-04-15T17:00:58.244Z,76.43
2023-04-15T17:05:22.367Z,76.51
2023-04-15T17:10:06.183Z,76.68
2023-04-15T17:14:30.417Z,76.98
2023-04-15T17:18:54.229Z,76.87
2023-04-15T17:23:20.448Z,76.46
2023-04-15T17:27:36.208Z,76.89
2023-04-15T17:32:02.982Z,78.05
2023-04-15T17:36:26.907Z,77.93
2023-04-15T17:40:55.172Z,76.94
2023-04-15T17:45:49.206Z,76.60
2023-04-15T17:50:20.171Z,77.11
2023-04-15T17:59:42.090Z,77.63
2023-04-15T18:04:12.369Z,77.44
2023-04-15T18:08:37.633Z,77.83
2023-04-15T18:13:01.759Z,77.90
2023-04-15T18:17:18.507Z,78.21
2023-04-15T18:21:48.805Z,78.35
2023-04-15T18:26:15.507Z,78.37
2023-04-15T18:30:41.342Z,77.48
2023-04-15T18:35:06.516Z,77.75
2023-04-15T18:39:30.506Z,78.58
2023-04-15T18:44:14.497Z,78.21
2023-04-15T18:48:39.514Z,77.96
2023-04-15T18:53:03.425Z,78.04
2023-04-15T18:57:31.336Z,77.83
2023-04-15T19:01:57.831Z,77.76
2023-04-15T19:06:22.846Z,77.84
2023-04-15T19:10:47.520Z,78.36
2023-04-15T19:15:00.051Z,78.90
2023-04-15T19:19:15.600Z,78.66
2023-04-15T19:23:30.154Z,78.48
2023-04-15T19:27:55.166Z,78.13
2023-04-15T19:32:18.906Z,78.41
2023-04-15T19:36:34.171Z,78.98
2023-04-15T19:40:51.879Z,78.98
2023-04-15T19:44:53.997Z,78.87
2023-04-15T19:49:22.900Z,78.56
2023-04-15T19:53:38.118Z,78.29
2023-04-15T19:58:02.177Z,78.55
2023-04-15T20:02:26.522Z,78.87
2023-04-15T20:06:53.240Z,79.28
2023-04-15T20:11:18.151Z,78.83
2023-04-15T20:15:42.295Z,79.02
2023-04-15T20:20:26.336Z,78.95
2023-04-15T20:24:54.302Z,78.94
2023-04-15T20:29:18.316Z,78.90
2023-04-15T20:33:44.418Z,79.33
2023-04-15T20:38:08.595Z,79.45
2023-04-15T20:42:52.933Z,79.42
2023-04-15T20:47:16.966Z,78.81
2023-04-15T20:52:01.824Z,79.06
2023-04-15T20:56:25.855Z,78.83
2023-04-15T21:00:50.265Z,78.79
2023-04-15T21:05:14.278Z,78.88
2023-04-15T21:09:58.240Z,78.85
2023-04-15T21:14:22.215Z,78.91
2023-04-15T21:18:47.308Z,78.94
2023-04-15T21:23:13.017Z,79.52
2023-04-15T21:27:37.007Z,79.01
2023-04-15T21:32:02.076Z,78.93
2023-04-15T21:36:27.064Z,79.10
2023-04-15T21:40:51.191Z,78.69
2023-04-15T21:45:15.150Z,79.20
2023-04-15T21:49:40.090Z,79.23
2023-04-15T21:54:24.224Z,79.55
2023-04-15T21:58:48.188Z,79.37
2023-04-15T22:03:12.251Z,79.39
2023-04-15T22:07:40.083Z,79.26
2023-04-15T22:12:04.229Z,79.20
2023-04-15T22:16:20.922Z,79.36
2023-04-15T22:20:44.917Z,79.86
2023-04-15T22:25:09.003Z,80.11
2023-04-15T22:29:32.938Z,79.32
2023-04-15T22:33:59.034Z,79.28
2023-04-15T22:38:22.979Z,79.60
2023-04-15T22:42:46.888Z,79.68
2023-04-15T22:47:11.856Z,79.75
2023-04-15T22:51:35.697Z,79.68
2023-04-15T22:55:59.672Z,79.35
2023-04-15T23:00:23.520Z,79.15
2023-04-15T23:04:47.792Z,79.55
2023-04-15T23:09:12.074Z,79.69
2023-04-15T23:13:36.090Z,79.77
2023-04-15T23:18:00.536Z,79.65
2023-04-15T23:22:24.507Z,79.61
2023-04-15T23:26:49.627Z,79.59
2023-04-15T23:31:03.190Z,79.72
2023-04-15T23:35:27.240Z,79.46
2023-04-15T23:39:51.393Z,79.65
2023-04-15T23:44:25.751Z,79.66
2023-04-15T23:48:49.754Z,79.79
2023-04-15T23:53:14.921Z,79.73
2023-04-15T23:57:38.949Z,80.14
